Time;durP1;ratioP1;P1;durP2;ratioP2;P2;SDS_P1;SDS_P2;PMS_P1;PMS_P2;Temp;Humidity;BMP_temperature;BMP_pressure;BME280_temperature;BME280_humidity;BME280_pressure;Samples;Min_cycle;Max_cycle;Signal;HPM_P1;HPM_P2
2024/02/05 00:00:40;;;;;;;1.20;0.90;;;7.80;99.90;;;7.76;100.00;100253.53;6190479;23;20157;-64
2024/02/05 00:03:10;;;;;;;0.80;0.60;;;7.70;99.90;;;7.69;100.00;100247.28;6162660;23;20176;-65
2024/02/05 00:05:39;;;;;;;1.10;0.90;;;7.70;99.90;;;7.67;100.00;100241.25;6189507;23;20150;-66
2024/02/05 00:08:08;;;;;;;1.30;1.20;;;7.60;99.90;;;7.79;100.00;100236.97;6189757;23;20207;-66
2024/02/05 00:10:39;;;;;;;1.02;0.77;;;7.70;99.90;;;7.79;100.00;100232.41;6189053;23;20166;-66
2024/02/05 00:13:09;;;;;;;0.93;0.57;;;7.70;99.90;;;7.84;100.00;100229.94;6188860;23;20170;-65
2024/02/05 00:15:38;;;;;;;1.30;0.93;;;7.80;99.90;;;7.83;100.00;100222.06;6187195;23;20189;-67
2024/02/05 00:18:07;;;;;;;0.90;0.60;;;7.80;99.90;;;7.96;100.00;100219.44;6186588;23;20268;-66
2024/02/05 00:20:40;;;;;;;0.95;0.60;;;7.90;99.90;;;7.92;100.00;100210.09;6185744;23;20192;-66
2024/02/05 00:23:09;;;;;;;0.80;0.50;;;7.90;99.90;;;8.03;100.00;100214.91;6185806;23;20150;-67
2024/02/05 00:25:38;;;;;;;0.90;0.70;;;7.90;99.90;;;8.10;100.00;100213.03;6185811;23;20239;-67
2024/02/05 00:28:07;;;;;;;1.05;0.95;;;8.00;99.90;;;8.09;100.00;100195.22;6185890;23;20268;-66
2024/02/05 00:30:36;;;;;;;1.70;1.60;;;8.00;99.90;;;8.13;100.00;100196.47;6159286;23;20555;-65
2024/02/05 00:33:06;;;;;;;1.65;1.30;;;8.10;99.90;;;8.23;100.00;100204.16;6189105;23;20185;-67
2024/02/05 00:35:36;;;;;;;1.50;1.40;;;8.10;99.90;;;8.25;100.00;100196.72;6190826;23;20154;-65
2024/02/05 00:38:05;;;;;;;1.05;0.65;;;8.10;99.90;;;8.28;100.00;100189.03;6189544;23;20185;-65
2024/02/05 00:40:36;;;;;;;0.90;0.50;;;8.20;99.90;;;8.44;100.00;100203.22;6189257;23;20228;-67
2024/02/05 00:43:06;;;;;;;0.80;0.60;;;8.30;99.90;;;8.54;100.00;100196.38;6189197;23;20186;-66
2024/02/05 00:45:35;;;;;;;1.02;0.90;;;8.40;99.90;;;8.65;100.00;100203.03;6189447;23;20154;-66
2024/02/05 00:48:04;;;;;;;1.85;1.02;;;8.50;99.90;;;8.64;100.00;100190.59;6188504;23;20189;-63
2024/02/05 00:50:33;;;;;;;1.17;0.60;;;8.50;99.90;;;8.76;100.00;100196.19;6161831;23;20169;-64
2024/02/05 00:53:04;;;;;;;0.90;0.80;;;8.60;99.90;;;8.80;100.00;100192.88;6189174;23;20380;-65
2024/02/05 00:55:33;;;;;;;0.90;0.80;;;8.70;99.90;;;8.88;100.00;100191.81;6188636;23;20154;-64
2024/02/05 00:58:02;;;;;;;1.65;1.13;;;8.80;99.90;;;8.95;100.00;100187.28;6186159;23;20244;-65
2024/02/05 01:00:31;;;;;;;1.00;0.70;;;8.80;99.90;;;8.99;100.00;100183.13;6185275;23;20607;-66
2024/02/05 01:02:59;;;;;;;0.90;0.50;;;8.90;99.90;;;9.01;100.00;100184.56;6185787;23;20599;-66
2024/02/05 01:05:28;;;;;;;1.25;0.70;;;8.90;99.90;;;9.12;100.00;100175.81;6185607;23;20150;-66
2024/02/05 01:07:58;;;;;;;0.98;0.82;;;9.00;99.90;;;9.23;100.00;100168.13;6185595;23;20192;-65
2024/02/05 01:10:28;;;;;;;0.80;0.73;;;9.10;99.90;;;9.21;100.00;100179.13;6185270;23;20245;-63
2024/02/05 01:12:57;;;;;;;0.80;0.60;;;9.10;99.90;;;9.25;100.00;100176.81;6185828;23;20193;-65
2024/02/05 01:15:26;;;;;;;1.63;0.90;;;9.20;99.90;;;9.31;100.00;100167.88;6185971;23;20158;-65
2024/02/05 01:17:55;;;;;;;0.95;0.63;;;9.20;99.90;;;9.43;100.00;100182.41;6185349;23;20182;-65
2024/02/05 01:20:24;;;;;;;0.77;0.40;;;9.30;99.90;;;9.41;100.00;100171.81;6185554;23;20205;-66
2024/02/05 01:22:54;;;;;;;0.80;0.50;;;9.30;99.90;;;9.48;100.00;100171.81;6159024;23;20443;-65
2024/02/05 01:25:23;;;;;;;0.90;0.50;;;9.30;99.90;;;9.50;100.00;100169.72;6185293;23;20161;-68
2024/02/05 01:27:54;;;;;;;0.80;0.50;;;9.40;99.90;;;9.56;100.00;100171.56;6185388;23;20409;-62
2024/02/05 01:30:22;;;;;;;0.80;0.40;;;9.50;99.90;;;9.58;100.00;100172.19;6185517;23;20400;-65
2024/02/05 01:32:51;;;;;;;0.77;0.50;;;9.50;99.90;;;9.61;100.00;100166.34;6187250;23;20424;-66
2024/02/05 01:35:20;;;;;;;0.82;0.52;;;9.50;99.90;;;9.69;100.00;100174.19;6187993;23;20862;-66
2024/02/05 01:37:49;;;;;;;1.10;0.60;;;9.60;99.90;;;9.75;100.00;100176.06;6187141;23;20256;-65
2024/02/05 01:40:18;;;;;;;0.80;0.40;;;9.60;99.90;;;9.75;100.00;100177.94;6186753;23;20380;-65
2024/02/05 01:42:47;;;;;;;1.27;0.60;;;9.60;99.90;;;9.78;100.00;100175.63;6187232;23;20373;-66
2024/02/05 01:45:17;;;;;;;0.80;0.40;;;9.70;99.90;;;9.83;100.00;100170.41;6186838;23;20365;-65
2024/02/05 01:47:47;;;;;;;0.80;0.60;;;9.70;99.90;;;9.88;100.00;100178.69;6187252;23;20401;-66
2024/02/05 01:50:18;;;;;;;0.90;0.80;;;9.80;99.90;;;9.84;100.00;100177.47;6187081;23;20392;-65
2024/02/05 01:52:51;;;;;;;0.80;0.40;;;9.70;99.90;;;9.89;100.00;100169.56;6186689;23;20409;-65
2024/02/05 01:55:24;;;;;;;0.80;0.50;;;9.80;99.90;;;9.90;100.00;100165.81;6186550;23;20374;-65
2024/02/05 01:57:55;;;;;;;0.80;0.53;;;9.80;99.90;;;9.89;100.00;100182.22;6186693;23;20492;-66
2024/02/05 02:00:31;;;;;;;0.90;0.77;;;9.80;99.90;;;9.93;100.00;100181.59;6185016;23;20411;-65
2024/02/05 02:03:00;;;;;;;1.10;0.70;;;9.80;99.90;;;9.91;100.00;100178.28;6187630;23;20196;-66
2024/02/05 02:05:30;;;;;;;1.10;0.70;;;9.80;99.90;;;9.97;100.00;100190.91;6189656;23;20396;-66
2024/02/05 02:08:00;;;;;;;0.80;0.50;;;9.90;99.90;;;9.92;100.00;100196.13;6187050;23;20181;-67
2024/02/05 02:10:29;;;;;;;0.90;0.50;;;9.90;99.90;;;9.95;100.00;100193.03;6186813;23;20395;-66
2024/02/05 02:12:58;;;;;;;0.80;0.60;;;9.90;99.90;;;9.93;100.00;100178.88;6186328;23;20761;-66
2024/02/05 02:15:27;;;;;;;0.80;0.40;;;9.80;99.90;;;9.97;100.00;100182.00;6186227;23;20369;-66
2024/02/05 02:18:03;;;;;;;0.80;0.50;;;9.90;99.90;;;9.99;100.00;100191.53;6186070;23;20431;-66
2024/02/05 02:20:43;;;;;;;1.00;0.87;;;9.90;99.90;;;9.99;100.00;100188.00;6186675;23;20606;-65
2024/02/05 02:23:20;;;;;;;0.80;0.50;;;9.90;99.90;;;10.03;100.00;100184.66;6186603;23;20373;-65
2024/02/05 02:25:52;;;;;;;1.07;0.97;;;9.90;99.90;;;9.99;100.00;100178.03;6186574;23;20879;-66
2024/02/05 02:28:21;;;;;;;0.80;0.50;;;9.90;99.90;;;10.00;100.00;100168.03;6186045;23;20404;-65
2024/02/05 02:30:52;;;;;;;0.80;0.50;;;9.90;99.90;;;9.95;100.00;100174.09;6186156;23;20373;-65
2024/02/05 02:33:28;;;;;;;0.80;0.40;;;9.90;99.90;;;9.99;100.00;100175.31;6186246;23;20412;-66
2024/02/05 02:36:09;;;;;;;0.80;0.63;;;9.90;99.90;;;9.95;100.00;100163.28;6186253;23;20376;-67
2024/02/05 02:38:46;;;;;;;0.80;0.47;;;9.90;99.90;;;9.96;100.00;100170.38;6159912;23;20451;-67
2024/02/05 02:41:23;;;;;;;0.70;0.40;;;9.90;99.90;;;9.94;100.00;100169.75;6186228;23;20157;-64
2024/02/05 02:43:57;;;;;;;0.80;0.50;;;9.80;99.90;;;9.95;100.00;100163.28;6185735;23;20381;-64
2024/02/05 02:46:28;;;;;;;0.80;0.55;;;9.90;99.90;;;9.99;100.00;100163.69;6186281;23;20380;-66
2024/02/05 02:48:57;;;;;;;0.73;0.40;;;9.90;99.90;;;10.02;100.00;100163.28;6186476;23;20183;-64
2024/02/05 02:51:29;;;;;;;0.80;0.40;;;9.90;99.90;;;9.99;100.00;100164.50;6186241;23;20146;-67
2024/02/05 02:53:59;;;;;;;0.90;0.50;;;9.90;99.90;;;10.03;100.00;100165.72;6188611;23;20781;-66
2024/02/05 02:56:29;;;;;;;0.80;0.50;;;9.90;99.90;;;10.03;100.00;100175.72;6190447;23;20380;-64
2024/02/05 02:58:57;;;;;;;0.77;0.47;;;9.90;99.90;;;10.03;100.00;100186.53;6186494;23;20417;-65
2024/02/05 03:01:26;;;;;;;0.80;0.47;;;9.90;99.90;;;10.02;100.00;100174.88;6160538;23;20411;-66
2024/02/05 03:03:56;;;;;;;0.83;0.60;;;;;;;10.02;100.00;100185.69;6186860;23;20381;-67
2024/02/05 03:06:24;;;;;;;0.90;0.57;;;9.90;99.90;;;10.05;100.00;100189.84;6185999;23;20396;-66
2024/02/05 03:08:53;;;;;;;1.23;0.80;;;10.00;99.90;;;10.10;100.00;100197.31;6186136;23;20489;-67
2024/02/05 03:11:24;;;;;;;0.80;0.50;;;10.00;99.90;;;10.04;100.00;100202.53;6186100;23;20733;-64
2024/02/05 03:13:52;;;;;;;0.80;0.40;;;10.00;99.90;;;10.04;100.00;100188.19;6185720;23;20496;-63
2024/02/05 03:16:21;;;;;;;1.00;0.50;;;10.00;99.90;;;10.06;100.00;100212.31;6185797;23;20385;-65
2024/02/05 03:18:53;;;;;;;0.97;0.60;;;10.00;99.90;;;10.06;100.00;100191.53;6185650;23;20408;-64
2024/02/05 03:21:22;;;;;;;0.90;0.60;;;10.00;99.90;;;10.06;100.00;100204.22;6185840;23;20464;-67
2024/02/05 03:23:51;;;;;;;0.80;0.50;;;10.00;99.90;;;10.04;100.00;100205.25;6185883;23;20420;-66
2024/02/05 03:26:19;;;;;;;0.90;0.50;;;9.90;99.90;;;10.03;100.00;100211.69;6185869;23;20365;-65
2024/02/05 03:28:49;;;;;;;0.70;0.50;;;9.90;99.90;;;10.00;100.00;100220.25;6185932;23;20401;-65
2024/02/05 03:31:18;;;;;;;1.07;0.80;;;10.00;99.90;;;10.00;100.00;100219.41;6186903;23;20378;-67
2024/02/05 03:33:47;;;;;;;1.13;0.93;;;9.90;99.90;;;10.00;100.00;100217.53;6169479;23;20487;-66
2024/02/05 03:36:16;;;;;;;1.23;0.83;;;10.00;99.90;;;9.97;100.00;100220.66;6185645;23;20447;-65
2024/02/05 03:38:45;;;;;;;0.70;0.40;;;9.90;99.90;;;10.01;100.00;100219.19;6185213;23;20802;-65
2024/02/05 03:41:13;;;;;;;0.70;0.40;;;9.90;99.90;;;10.02;100.00;100217.31;6183480;23;20846;-64
2024/02/05 03:43:43;;;;;;;0.73;0.43;;;9.90;99.90;;;10.02;100.00;100223.53;6185270;23;20382;-67
2024/02/05 03:46:13;;;;;;;0.70;0.40;;;9.90;99.90;;;10.00;100.00;100231.06;6185108;23;20369;-67
2024/02/05 03:48:51;;;;;;;1.00;0.60;;;9.90;99.90;;;9.99;100.00;100221.28;6185162;23;20401;-67
2024/02/05 03:51:19;;;;;;;0.80;0.57;;;9.90;99.90;;;10.01;100.00;100221.06;6185051;23;20373;-68
2024/02/05 03:53:49;;;;;;;0.80;0.60;;;9.90;99.90;;;10.01;100.00;100224.59;6185200;23;20429;-67
2024/02/05 03:56:18;;;;;;;0.80;0.50;;;9.90;99.90;;;9.97;100.00;100220.66;6184933;23;20412;-67
2024/02/05 03:58:48;;;;;;;0.70;0.50;;;9.90;99.90;;;9.97;100.00;100220.66;6184886;23;20405;-67
2024/02/05 04:01:18;;;;;;;0.70;0.40;;;9.90;99.90;;;9.95;100.00;100217.34;6184875;23;20553;-67
2024/02/05 04:03:49;;;;;;;0.80;0.50;;;9.90;99.90;;;9.90;100.00;100236.06;6185318;23;20370;-68
2024/02/05 04:06:17;;;;;;;0.90;0.50;;;9.90;99.90;;;9.93;100.00;100240.22;6184855;23;20385;-68
2024/02/05 04:08:46;;;;;;;0.80;0.50;;;9.90;99.90;;;9.95;100.00;100244.38;6184782;23;20453;-67
2024/02/05 04:11:15;;;;;;;0.90;0.70;;;9.90;99.90;;;9.95;100.00;100230.88;6185097;23;20417;-67
2024/02/05 04:13:43;;;;;;;0.70;0.40;;;9.90;99.90;;;9.95;100.00;100225.47;6185132;23;20432;-67
2024/02/05 04:16:14;;;;;;;1.27;0.60;;;9.90;99.90;;;9.90;100.00;100229.84;6184866;23;20393;-67
2024/02/05 04:18:44;;;;;;;0.80;0.40;;;9.90;99.90;;;9.86;100.00;100248.38;6184878;23;20805;-67
2024/02/05 04:21:13;;;;;;;0.70;0.40;;;9.80;99.90;;;9.85;100.00;100260.22;6184921;23;20404;-66
2024/02/05 04:23:41;;;;;;;0.80;0.50;;;9.80;99.90;;;9.82;100.00;100246.31;6184953;23;20164;-68
2024/02/05 04:26:17;;;;;;;1.47;0.70;;;9.80;99.90;;;9.85;100.00;100249.41;6184851;23;20714;-68
2024/02/05 04:28:47;;;;;;;0.70;0.40;;;9.80;99.90;;;9.82;100.00;100254.41;6184962;23;20404;-67
2024/02/05 04:31:17;;;;;;;0.70;0.40;;;9.70;99.90;;;9.83;100.00;100262.28;6184923;23;20373;-67
2024/02/05 04:33:48;;;;;;;0.90;0.60;;;9.80;99.90;;;9.81;100.00;100258.97;6184897;23;20368;-67
2024/02/05 04:36:17;;;;;;;0.90;0.53;;;9.80;99.90;;;9.86;100.00;100261.03;6185272;23;20428;-67
2024/02/05 04:38:45;;;;;;;0.80;0.50;;;9.80;99.90;;;9.80;100.00;100260.00;6186094;23;20495;-67
2024/02/05 04:41:14;;;;;;;0.90;0.50;;;9.80;99.90;;;9.83;100.00;100258.75;6186298;23;20150;-67
2024/02/05 04:43:42;;;;;;;0.90;0.50;;;9.80;99.90;;;9.85;100.00;100254.81;6185622;23;20367;-67
2024/02/05 04:46:15;;;;;;;0.70;0.50;;;9.80;99.90;;;9.84;100.00;100258.53;6185322;23;20377;-66
2024/02/05 04:48:43;;;;;;;0.80;0.40;;;9.80;99.90;;;9.87;100.00;100258.13;6185290;23;20491;-66
2024/02/05 04:51:14;;;;;;;0.80;0.50;;;9.80;99.90;;;9.85;100.00;100257.50;6184930;23;20374;-66
2024/02/05 04:53:42;;;;;;;0.77;0.40;;;9.80;99.90;;;9.79;100.00;100261.06;6184737;23;20401;-66
2024/02/05 04:56:11;;;;;;;0.70;0.40;;;9.70;99.90;;;9.79;100.00;100261.06;6184529;23;20503;-65
2024/02/05 04:58:40;;;;;;;0.80;0.50;;;9.70;99.90;;;9.79;100.00;100252.94;6184849;23;20417;-65
2024/02/05 05:01:09;;;;;;;0.73;0.40;;;9.70;99.90;;;9.76;100.00;100266.88;6184798;23;20705;-67
2024/02/05 05:03:40;;;;;;;0.90;0.53;;;9.70;99.90;;;9.76;100.00;100272.28;6184782;23;20717;-67
2024/02/05 05:06:09;;;;;;;0.80;0.47;;;9.70;99.90;;;9.72;100.00;100265.66;6185650;23;20412;-67
2024/02/05 05:08:39;;;;;;;3.50;1.50;;;9.70;99.90;;;9.78;100.00;100272.09;6186553;23;20405;-67
2024/02/05 05:11:08;;;;;;;1.37;0.80;;;9.70;99.90;;;9.77;100.00;100257.75;6186736;23;20377;-67
2024/02/05 05:13:36;;;;;;;0.97;0.87;;;9.70;99.90;;;9.74;100.00;100263.56;6187810;23;20369;-66
2024/02/05 05:16:06;;;;;;;0.77;0.40;;;9.70;99.90;;;9.77;100.00;100268.56;6187191;23;20459;-66
2024/02/05 05:18:35;;;;;;;1.13;0.70;;;9.70;99.90;;;9.79;100.00;100244.84;6186959;23;20723;-67
2024/02/05 05:21:04;;;;;;;0.70;0.40;;;9.70;99.90;;;9.76;100.00;100255.25;6187006;23;20380;-65
2024/02/05 05:23:33;;;;;;;0.80;0.60;;;9.70;99.90;;;9.74;100.00;100254.63;6186801;23;20364;-66
2024/02/05 05:26:03;;;;;;;0.90;0.70;;;9.70;99.90;;;9.74;100.00;100257.31;6186730;23;20369;-66
2024/02/05 05:28:32;;;;;;;0.90;0.67;;;9.70;99.90;;;9.75;100.00;100270.63;6186419;23;20380;-65
2024/02/05 05:31:01;;;;;;;0.80;0.70;;;;;;;9.76;100.00;100271.47;6186473;23;20414;-66
2024/02/05 05:33:30;;;;;;;14.07;1.30;;;9.70;99.90;;;9.70;100.00;100267.72;6186315;23;20377;-66
2024/02/05 05:35:59;;;;;;;1.25;0.80;;;9.70;99.90;;;9.72;100.00;100262.13;6186528;23;20201;-67
2024/02/05 05:38:27;;;;;;;0.80;0.40;;;9.70;99.90;;;9.64;100.00;100263.16;6186229;23;20207;-65
2024/02/05 05:40:56;;;;;;;0.70;0.40;;;9.60;99.90;;;9.66;100.00;100265.66;6159934;23;20774;-68
2024/02/05 05:43:26;;;;;;;0.80;0.50;;;9.60;99.90;;;9.67;100.00;100262.75;6186398;23;20381;-66
2024/02/05 05:45:55;;;;;;;1.48;0.63;;;9.60;99.90;;;9.71;100.00;100263.16;6187739;23;20157;-66
2024/02/05 05:48:24;;;;;;;1.10;0.63;;;9.60;99.90;;;9.72;100.00;100260.25;6186817;23;20181;-68
2024/02/05 05:50:53;;;;;;;0.80;0.50;;;;;;;9.70;100.00;100265.03;6186586;23;20447;-67
2024/02/05 05:53:22;;;;;;;1.00;0.68;;;;;;;9.65;100.00;100267.53;6186266;23;20188;-66
2024/02/05 05:55:54;;;;;;;0.80;0.50;;;;;;;9.71;100.00;100266.69;6186623;23;20178;-68
2024/02/05 05:58:23;;;;;;;1.00;0.77;;;;;;;9.71;100.00;100264.00;6186226;23;20408;-66
2024/02/05 06:00:53;;;;;;;0.70;0.40;;;;;;;9.68;100.00;100269.84;6186489;23;20749;-68
2024/02/05 06:03:23;;;;;;;0.70;0.45;;;;;;;9.66;100.00;100276.47;6186101;23;20373;-67
2024/02/05 06:05:52;;;;;;;0.80;0.50;;;;;;;9.69;100.00;100273.34;6186268;23;20161;-67
2024/02/05 06:08:24;;;;;;;0.80;0.50;;;;;;;9.69;100.00;100271.47;6187228;23;20488;-66
2024/02/05 06:10:53;;;;;;;1.37;0.50;;;;;;;9.70;100.00;100272.28;6186930;23;20401;-66
2024/02/05 06:13:22;;;;;;;0.80;0.50;;;;;;;9.71;100.00;100266.69;6186351;23;20881;-66
2024/02/05 06:15:53;;;;;;;1.30;0.90;;;;;;;9.72;100.00;100268.34;6186337;23;20416;-66
2024/02/05 06:18:22;;;;;;;0.80;0.40;;;;;;;9.71;100.00;100268.56;6186063;23;20405;-66
2024/02/05 06:20:54;;;;;;;0.80;0.50;;;;;;;9.69;100.00;100271.47;6187775;23;20373;-67
2024/02/05 06:23:23;;;;;;;1.07;0.50;;;;;;;9.71;100.00;100266.69;6190348;23;20400;-67
2024/02/05 06:25:52;;;;;;;0.80;0.40;;;;;;;9.69;100.00;100260.66;6189332;23;20370;-67
2024/02/05 06:28:21;;;;;;;0.80;0.47;;;;;;;9.75;100.00;100276.03;6189067;23;20182;-66
2024/02/05 06:30:51;;;;;;;0.80;0.50;;;;;;;9.69;100.00;100268.75;6189783;23;20388;-67
2024/02/05 06:33:23;;;;;;;0.80;0.50;;;;;;;9.77;100.00;100276.66;6188562;23;20400;-67
2024/02/05 06:35:52;;;;;;;0.80;0.40;;;9.70;99.90;;;9.77;100.00;100279.38;6188502;23;20416;-68
2024/02/05 06:38:22;;;;;;;0.70;0.40;;;;;;;9.80;100.00;100278.09;6187861;23;20181;-67
2024/02/05 06:40:51;;;;;;;0.80;0.50;;;10.10;99.90;;;9.84;100.00;100274.75;6187767;23;20389;-66
2024/02/05 06:43:20;;;;;;;0.80;0.63;;;9.80;99.90;;;9.86;100.00;100283.50;6187903;23;20402;-68
2024/02/05 06:45:49;;;;;;;0.97;0.50;;;9.70;99.90;;;9.81;100.00;100286.00;6187870;23;20778;-68
2024/02/05 06:48:18;;;;;;;0.80;0.50;;;9.70;99.90;;;9.82;100.00;100279.56;6187342;23;20405;-68
2024/02/05 06:50:49;;;;;;;1.25;0.60;;;9.70;99.90;;;9.79;100.00;100271.84;6187526;23;20149;-67
2024/02/05 06:53:19;;;;;;;1.23;0.90;;;;;;;9.82;100.00;100281.44;6186389;23;20622;-67
2024/02/05 06:55:48;;;;;;;1.53;1.20;;;;;;;9.81;100.00;100277.06;6186197;23;20182;-67
2024/02/05 06:58:19;;;;;;;0.70;0.50;;;;;;;9.84;100.00;100288.25;6185804;23;20444;-69
2024/02/05 07:00:48;;;;;;;0.90;0.67;;;;;;;9.89;100.00;100293.88;6186345;23;20408;-68
2024/02/05 07:03:19;;;;;;;0.70;0.40;;;;;;;9.90;100.00;100311.75;6185704;23;20384;-67
2024/02/05 07:05:52;;;;;;;0.90;0.50;;;;;;;9.88;100.00;100292.19;6186022;23;20448;-67
2024/02/05 07:08:21;;;;;;;0.90;0.60;;;;;;;9.87;100.00;100295.97;6185772;23;20709;-66
2024/02/05 07:10:50;;;;;;;1.17;0.70;;;9.90;99.90;;;9.91;100.00;100291.78;6185629;23;20153;-67
2024/02/05 07:13:19;;;;;;;1.40;0.73;;;9.90;99.90;;;9.91;100.00;100301.78;6185566;23;20389;-68
2024/02/05 07:15:48;;;;;;;1.00;0.80;;;9.90;99.90;;;9.92;100.00;100300.72;6185895;23;20471;-69
2024/02/05 07:18:17;;;;;;;0.80;0.60;;;9.80;99.90;;;9.91;100.00;100304.47;6185636;23;20416;-67
2024/02/05 07:20:46;;;;;;;0.75;0.50;;;9.80;99.90;;;9.93;100.00;100303.22;6186171;23;20180;-67
2024/02/05 07:23:17;;;;;;;0.90;0.50;;;9.90;99.90;;;9.89;100.00;100304.69;6185975;23;20530;-67
2024/02/05 07:25:46;;;;;;;0.70;0.40;;;9.80;99.90;;;9.95;100.00;100306.53;6186087;23;20380;-67
2024/02/05 07:28:15;;;;;;;0.80;0.40;;;9.90;99.90;;;9.92;100.00;100315.06;6185433;23;20181;-66
2024/02/05 07:30:46;;;;;;;0.73;0.50;;;9.80;99.90;;;9.97;100.00;100304.44;6185939;23;20782;-63
2024/02/05 07:33:15;;;;;;;1.97;1.00;;;9.90;99.90;;;9.98;100.00;100305.28;6186504;23;20389;-64
2024/02/05 07:35:44;;;;;;;0.97;0.70;;;9.90;99.90;;;9.97;100.00;100301.72;6186797;23;20412;-68
2024/02/05 07:38:14;;;;;;;0.80;0.50;;;9.90;99.90;;;9.97;100.00;100300.94;6188575;23;20400;-67
2024/02/05 07:40:47;;;;;;;0.70;0.40;;;9.90;99.90;;;9.97;100.00;100312.53;6186532;23;20420;-66
2024/02/05 07:43:17;;;;;;;0.80;0.60;;;9.90;99.90;;;9.91;100.00;100308.00;6185136;23;20837;-64
2024/02/05 07:45:46;;;;;;;0.80;0.40;;;9.80;99.90;;;10.00;100.00;100311.31;6186036;23;20381;-68
2024/02/05 07:48:15;;;;;;;1.10;1.00;;;;;;;9.98;100.00;100316.09;6185648;23;20405;-67
2024/02/05 07:50:44;;;;;;;0.90;0.50;;;;;;;10.02;100.00;100312.75;6186430;23;20389;-68
2024/02/05 07:53:13;;;;;;;0.95;0.65;;;;;;;10.01;100.00;100315.69;6187020;23;20400;-69
2024/02/05 07:56:10;;;;;;;0.80;0.53;;;;;;;9.99;100.00;100326.69;6186809;23;20529;-67
2024/02/05 07:58:41;;;;;;;3.08;1.15;;;;;;;9.98;100.00;100325.03;6186964;23;20401;-68
2024/02/05 08:01:10;;;;;;;0.80;0.53;;;;;;;10.03;100.00;100332.50;6187488;23;20561;-67
2024/02/05 08:03:40;;;;;;;0.70;0.40;;;;;;;9.98;100.00;100322.31;6187307;23;20408;-69
2024/02/05 08:06:09;;;;;;;0.90;0.80;;;;;;;10.00;100.00;100319.41;6187236;23;20157;-67
2024/02/05 08:08:38;;;;;;;1.67;0.53;;;;;;;9.97;100.00;100307.13;6186639;23;20409;-70
2024/02/05 08:11:09;;;;;;;1.43;1.10;;;;;;;9.95;100.00;100322.75;6186814;23;20440;-68
2024/02/05 08:13:39;;;;;;;0.90;0.60;;;;;;;9.96;100.00;100315.47;6187825;23;20377;-69
2024/02/05 08:16:08;;;;;;;1.20;1.05;;;;;;;9.99;100.00;100323.16;6187110;23;20433;-68
2024/02/05 08:18:37;;;;;;;0.87;0.60;;;;;;;9.99;100.00;100326.69;6186606;23;20244;-66
2024/02/05 08:21:06;;;;;;;0.90;0.50;;;;;;;9.95;100.00;100325.47;6186313;23;20446;-66
2024/02/05 08:23:37;;;;;;;0.83;0.50;;;;;;;9.95;100.00;100324.63;6186566;23;20883;-67
2024/02/05 08:26:08;;;;;;;0.80;0.50;;;;;;;9.96;100.00;100346.06;6159747;23;20472;-67
2024/02/05 08:28:42;;;;;;;1.10;0.53;;;;;;;9.97;100.00;100338.78;6159660;23;20406;-66
2024/02/05 08:31:11;;;;;;;0.90;0.70;;;;;;;9.98;100.00;100338.53;6185547;23;20731;-68
2024/02/05 08:33:39;;;;;;;0.98;0.50;;;;;;;9.96;100.00;100329.84;6184960;23;20348;-66
2024/02/05 08:36:09;;;;;;;1.30;1.13;;;;;;;9.95;100.00;100341.69;6185057;23;20162;-67
2024/02/05 08:38:38;;;;;;;0.95;0.73;;;;;;;10.02;100.00;100338.97;6184974;23;20951;-66
2024/02/05 08:41:08;;;;;;;1.00;0.80;;;;;;;10.09;100.00;100352.44;6185922;23;20486;-68
2024/02/05 08:43:37;;;;;;;0.90;0.80;;;;;;;10.10;100.00;100346.00;6186980;23;20347;-66
2024/02/05 08:46:08;;;;;;;0.80;0.50;;;;;;;10.13;100.00;100359.09;6187021;23;20351;-68
2024/02/05 08:48:37;;;;;;;1.00;0.80;;;;;;;10.08;100.00;100361.59;6186986;23;20465;-64
2024/02/05 08:51:06;;;;;;;0.85;0.70;;;;;;;10.03;100.00;100348.72;6187071;23;20428;-67
2024/02/05 08:53:36;;;;;;;0.80;0.50;;;;;;;10.06;100.00;100363.69;6186828;23;20173;-67
2024/02/05 08:56:08;;;;;;;0.80;0.50;;;;;;;10.04;100.00;100348.50;6186838;23;20849;-68
2024/02/05 08:58:38;;;;;;;1.30;1.17;;;;;;;10.07;100.00;100339.13;6186799;23;20433;-67
2024/02/05 09:01:07;;;;;;;1.50;1.30;;;;;;;10.03;100.00;100360.34;6187056;23;20154;-67
2024/02/05 09:03:36;;;;;;;0.90;0.70;;;;;;;10.06;100.00;100347.47;6187121;23;20460;-68
2024/02/05 09:06:06;;;;;;;1.13;1.03;;;;;;;10.11;100.00;100361.19;6186985;23;20373;-66
2024/02/05 09:08:57;;;;;;;0.80;0.60;;;;;;;9.98;100.00;100356.63;6187326;23;20379;-67
2024/02/05 09:11:31;;;;;;;0.90;0.60;;;;;;;10.01;100.00;100370.56;6071671;23;20911;-77
2024/02/05 09:14:05;;;;;;;1.73;1.10;;;;;;;10.04;100.00;100367.44;6045358;23;20229;-77
2024/02/05 09:16:34;;;;;;;1.90;1.70;;;;;;;10.03;100.00;100379.28;6045025;23;20223;-76
2024/02/05 09:19:03;;;;;;;0.80;0.60;;;;;;;10.08;100.00;100369.72;6070619;23;20570;-76
2024/02/05 09:21:32;;;;;;;1.37;0.93;;;;;;;10.08;100.00;100367.00;6070466;23;20444;-77
2024/02/05 09:24:02;;;;;;;0.90;0.70;;;;;;;10.01;100.00;100375.97;6045852;23;20404;-76
2024/02/05 09:26:32;;;;;;;1.73;1.02;;;;;;;9.98;100.00;100379.09;6046704;23;20492;-76
2024/02/05 09:29:01;;;;;;;9.48;1.05;;;;;;;9.94;100.00;100391.38;6071814;23;20251;-77
2024/02/05 09:31:31;;;;;;;1.67;1.03;;;;;;;9.84;100.00;100388.25;6070692;23;20239;-77
2024/02/05 09:34:01;;;;;;;1.50;1.08;;;;;;;9.79;100.00;100379.09;6071992;23;20445;-77
2024/02/05 09:36:31;;;;;;;1.50;1.10;;;;;;;9.73;100.00;100385.38;6073696;23;20337;-77
2024/02/05 09:39:00;;;;;;;1.70;1.20;;;;;;;9.72;100.00;100387.25;6047795;23;20192;-78
2024/02/05 09:41:34;;;;;;;7.97;1.63;;;;;;;9.73;100.00;100391.56;6073433;23;20393;-77
2024/02/05 09:44:04;;;;;;;1.63;1.27;;;;;;;9.72;100.00;100391.81;6082579;23;20376;-77
2024/02/05 09:46:37;;;;;;;3.83;2.20;;;;;;;9.75;100.00;100399.47;6082712;23;20149;-77
2024/02/05 09:49:08;;;;;;;1.10;0.90;;;;;;;9.75;100.00;100385.97;6072539;23;20180;-76
2024/02/05 09:51:38;;;;;;;1.97;1.60;;;;;;;9.80;100.00;100407.78;6070344;23;20152;-78
2024/02/05 09:54:09;;;;;;;1.67;1.58;;;;;;;9.76;100.00;100410.09;6070421;23;20404;-77
2024/02/05 09:56:50;;;;;;;5.68;2.20;;;;;;;9.80;100.00;100395.13;6071689;23;20176;-76
2024/02/05 09:59:19;;;;;;;3.72;1.67;;;;;;;9.77;100.00;100400.97;6072531;23;20267;-77
2024/02/05 10:01:51;;;;;;;1.70;1.35;;;;;;;9.77;100.00;100400.97;6072587;23;20719;-77
2024/02/05 10:04:23;;;;;;;1.77;1.27;;;;;;;9.85;100.00;100391.78;6073481;23;20157;-77
2024/02/05 10:06:53;;;;;;;2.75;2.55;;;;;;;9.79;100.00;100408.84;6046328;23;20409;-77
2024/02/05 10:09:24;;;;;;;1.40;0.93;;;;;;;9.75;100.00;100391.38;6079319;23;20201;-77
2024/02/05 10:11:54;;;;;;;1.53;1.43;;;;;;;9.73;100.00;100401.59;6100712;23;20418;-77
2024/02/05 10:14:25;;;;;;;1.50;1.40;;;;;;;9.70;100.00;100391.16;6101133;23;20834;-78
2024/02/05 10:16:59;;;;;;;2.08;0.60;;;;;;;9.71;100.00;100409.06;6101507;23;20542;-76
2024/02/05 10:19:34;;;;;;;1.52;1.10;;;;;;;9.74;100.00;100392.41;6102949;23;20187;-77
2024/02/05 10:22:05;;;;;;;1.45;1.35;;;;;;;9.78;100.00;100399.91;6100804;23;20207;-77
2024/02/05 10:24:39;;;;;;;2.33;0.93;;;;;;;9.75;100.00;100402.19;6102262;23;20166;-79
2024/02/05 10:27:08;;;;;;;1.20;0.90;;;;;;;9.79;100.00;100396.16;6102511;23;20374;-77
2024/02/05 10:29:38;;;;;;;1.13;1.02;;;;;;;9.83;100.00;100407.38;6103239;23;20901;-76
2024/02/05 10:32:09;;;;;;;4.70;1.33;;;;;;;9.82;100.00;100400.31;6110811;23;20158;-76
2024/02/05 10:34:39;;;;;;;1.63;1.27;;;;;;;9.85;100.00;100389.91;6115442;23;20368;-76
2024/02/05 10:37:13;;;;;;;8.23;2.15;;;;;;;9.87;100.00;100393.25;6117424;23;20399;-76
2024/02/05 10:39:44;;;;;;;7.83;2.60;;;;;;;9.87;100.00;100387.84;6115562;23;20185;-76
2024/02/05 10:42:15;;;;;;;1.63;1.53;;;;;;;9.88;100.00;100402.16;6112952;23;20419;-77
2024/02/05 10:44:45;;;;;;;3.30;1.10;;;;;;;9.94;100.00;100399.47;6111007;23;20706;-76
2024/02/05 10:47:19;;;;;;;1.95;0.90;;;;;;;9.94;100.00;100388.66;6115452;23;20775;-76
2024/02/05 10:49:53;;;;;;;1.02;0.93;;;;;;;9.99;100.00;100396.97;6088098;23;20190;-77
2024/02/05 10:52:26;;;;;;;1.80;1.17;;;;;;;9.97;100.00;100404.44;6079455;23;20287;-78
2024/02/05 10:54:57;;;;;;;1.87;1.07;;;9.90;1.00;;;9.95;100.00;100401.13;6100851;23;20147;-78